Time;durP1;ratioP1;P1;durP2;ratioP2;P2;SDS_P1;SDS_P2;PMS_P1;PMS_P2;Temp;Humidity;BMP_temperature;BMP_pressure;BME280_temperature;BME280_humidity;BME280_pressure;Samples;Min_cycle;Max_cycle;Signal;HPM_P1;HPM_P2
2021/07/18 00:00:22;;;;;;;22.20;17.83;;;;;;;;;;4969083;28;20193;-70
2021/07/18 00:03:26;;;;;;;25.87;17.47;;;;;;;;;;4959168;28;20217;-70
2021/07/18 00:06:31;;;;;;;21.83;16.47;;;;;;;;;;4966560;28;20192;-70
2021/07/18 00:09:35;;;;;;;23.90;17.23;;;;;;;;;;4986841;28;20680;-70
2021/07/18 00:12:41;;;;;;;21.27;15.83;;;;;;;;;;4977445;28;20715;-71
2021/07/18 00:15:47;;;;;;;22.93;16.93;;;;;;;;;;4977869;28;20198;-70
2021/07/18 00:18:51;;;;;;;24.40;16.30;;;;;;;;;;4970813;28;20206;-73
2021/07/18 00:21:55;;;;;;;22.43;15.93;;;;;;;;;;4977232;28;20237;-70
2021/07/18 00:24:59;;;;;;;19.10;16.53;;;;;;;;;;4973367;28;20209;-72
2021/07/18 00:28:03;;;;;;;17.70;14.83;;;;;;;;;;4979889;28;20213;-72
2021/07/18 00:31:08;;;;;;;21.27;14.90;;;;;;;;;;4983329;28;20233;-72
2021/07/18 00:34:16;;;;;;;17.27;14.53;;;;;;;;;;4981116;28;20213;-72
2021/07/18 00:37:20;;;;;;;18.77;14.10;;;;;;;;;;4966712;28;20199;-73
2021/07/18 00:40:24;;;;;;;17.70;13.20;;;;;;;;;;4975196;28;20197;-72
2021/07/18 00:43:44;;;;;;;16.87;13.40;;;;;;;;;;4990328;28;20213;-72
2021/07/18 00:46:48;;;;;;;16.43;12.87;;;;;;;;;;4983208;28;20205;-72
2021/07/18 00:49:53;;;;;;;13.80;11.10;;;;;;;;;;4982443;28;20708;-72
2021/07/18 00:52:57;;;;;;;17.33;11.00;;;;;;;;;;4967467;28;20225;-71
2021/07/18 00:56:01;;;;;;;15.83;11.47;;;;;;;;;;4961127;28;20197;-72
2021/07/18 00:59:05;;;;;;;13.60;11.53;;;;;;;;;;4981319;28;20684;-72
2021/07/18 01:02:10;;;;;;;13.33;10.87;;;;;;;;;;4994599;28;20244;-72
2021/07/18 01:05:15;;;;;;;15.27;10.60;;;;;;;;;;4986560;28;20201;-72
2021/07/18 01:08:20;;;;;;;12.43;9.67;;;;;;;;;;4973029;28;20210;-72
2021/07/18 01:11:24;;;;;;;18.40;10.20;;;;;;;;;;4946647;28;20223;-73
2021/07/18 01:14:28;;;;;;;14.00;10.30;;;;;;;;;;4967962;28;20189;-71
2021/07/18 01:17:32;;;;;;;12.30;8.77;;;;;;;;;;4981406;28;20198;-72
2021/07/18 01:20:39;;;;;;;13.63;9.43;;;;;;;;;;4976621;28;20530;-72
2021/07/18 01:23:43;;;;;;;12.23;9.07;;;;;;;;;;4972354;28;20214;-71
2021/07/18 01:26:47;;;;;;;14.43;8.93;;;;;;;;;;4970498;28;20210;-72
2021/07/18 01:29:53;;;;;;;12.50;8.20;;;;;;;;;;4973371;28;20198;-72
2021/07/18 01:32:57;;;;;;;10.87;7.63;;;;;;;;;;4970664;28;20219;-72
2021/07/18 01:36:01;;;;;;;12.57;8.10;;;;;;;;;;4975773;28;20201;-73
2021/07/18 01:39:08;;;;;;;12.07;7.07;;;;;;;;;;4983055;28;20190;-72
2021/07/18 01:42:12;;;;;;;12.63;7.50;;;;;;;;;;4993607;28;20214;-72
2021/07/18 01:45:16;;;;;;;11.77;6.97;;;;;;;;;;4990413;28;20183;-72
2021/07/18 01:48:20;;;;;;;8.37;6.70;;;;;;;;;;4975975;28;20206;-72
2021/07/18 01:51:25;;;;;;;12.30;7.77;;;;;;;;;;4965038;28;20217;-72
2021/07/18 01:54:29;;;;;;;12.17;7.07;;;;;;;;;;4972537;28;20542;-72
2021/07/18 01:57:34;;;;;;;9.63;6.63;;;;;;;;;;4978530;28;20550;-72
2021/07/18 02:00:37;;;;;;;8.97;6.80;;;;;;;;;;4989368;28;20189;-72
2021/07/18 02:03:43;;;;;;;11.00;6.77;;;;;;;;;;4985831;28;20209;-72
2021/07/18 02:06:47;;;;;;;10.20;6.30;;;;;;;;;;4963646;28;20190;-73
2021/07/18 02:09:51;;;;;;;10.00;6.50;;;;;;;;;;4966743;28;20190;-72
2021/07/18 02:12:55;;;;;;;10.17;6.20;;;;;;;;;;4981243;28;20218;-72
2021/07/18 02:16:00;;;;;;;14.50;6.30;;;;;;;;;;4955538;29;20207;-72
2021/07/18 02:19:09;;;;;;;9.27;6.03;;;;;;;;;;4943537;29;20203;-72
2021/07/18 02:22:13;;;;;;;10.77;6.73;;;;;;;;;;4963062;28;20225;-72
2021/07/18 02:25:21;;;;;;;16.87;5.90;;;;;;;;;;4966754;28;20551;-72
2021/07/18 02:28:25;;;;;;;12.33;5.50;;;;;;;;;;4967613;28;20205;-72
2021/07/18 02:31:30;;;;;;;7.93;5.97;;;;;;;;;;4966555;28;20217;-73
2021/07/18 02:34:34;;;;;;;9.10;5.90;;;;;;;;;;4984744;28;20191;-71
2021/07/18 02:37:40;;;;;;;8.03;5.17;;;;;;;;;;4976847;28;20202;-72
2021/07/18 02:40:44;;;;;;;9.23;5.90;;;;;;;;;;4984625;28;20202;-73
2021/07/18 02:43:48;;;;;;;9.50;5.70;;;;;;;;;;4960847;28;21153;-72
2021/07/18 02:46:52;;;;;;;11.43;5.60;;;;;;;;;;4974351;28;20198;-72
2021/07/18 02:49:57;;;;;;;17.27;5.37;;;;;;;;;;4962532;28;20187;-72
2021/07/18 02:53:00;;;;;;;10.73;5.70;;;;;;;;;;4987232;28;20688;-73
2021/07/18 02:56:05;;;;;;;7.50;4.80;;;;;;;;;;4973626;28;20195;-72
2021/07/18 02:59:09;;;;;;;8.90;5.13;;;;;;;;;;4977864;28;20199;-73
2021/07/18 03:02:13;;;;;;;11.10;4.60;;;;;;;;;;4987334;28;20226;-72
2021/07/18 03:05:17;;;;;;;11.80;4.83;;;;;;;;;;4983687;28;20191;-71
2021/07/18 03:08:22;;;;;;;10.17;4.93;;;;;;;;;;4978389;28;20186;-72
2021/07/18 03:11:26;;;;;;;9.77;4.50;;;;;;;;;;4972594;28;20238;-72
2021/07/18 03:14:30;;;;;;;9.20;4.40;;;;;;;;;;4980609;28;20205;-72
2021/07/18 03:17:34;;;;;;;12.27;4.17;;;;;;;;;;4974209;28;20519;-72
2021/07/18 03:20:38;;;;;;;11.03;4.67;;;;;;;;;;4979365;28;20527;-72
2021/07/18 03:23:42;;;;;;;10.13;4.90;;;;;;;;;;4958006;29;20207;-72
2021/07/18 03:26:46;;;;;;;10.07;4.67;;;;;;;;;;4990631;28;20191;-72
2021/07/18 03:29:50;;;;;;;9.77;4.70;;;;;;;;;;4969082;28;20190;-72
2021/07/18 03:32:55;;;;;;;8.43;4.33;;;;;;;;;;4966715;28;20222;-72
2021/07/18 03:35:59;;;;;;;7.17;4.23;;;;;;;;;;4978581;28;20202;-72
2021/07/18 03:39:04;;;;;;;9.50;4.30;;;;;;;;;;4973159;28;20555;-72
2021/07/18 03:42:08;;;;;;;6.67;4.60;;;;;;;;;;4978989;28;20226;-72
2021/07/18 03:45:13;;;;;;;6.13;3.93;;;;;;;;;;4976712;28;20226;-74
2021/07/18 03:48:17;;;;;;;8.80;4.03;;;;;;;;;;4989283;28;20205;-72
2021/07/18 03:51:21;;;;;;;6.87;4.07;;;;;;;;;;4975649;28;20222;-72
2021/07/18 03:54:25;;;;;;;6.70;3.80;;;;;;;;;;4964336;28;20186;-72
2021/07/18 03:57:30;;;;;;;11.57;3.70;;;;;;;;;;4981813;28;20654;-73
2021/07/18 04:00:34;;;;;;;5.53;3.33;;;;;;;;;;4978432;28;20187;-72
2021/07/18 04:03:39;;;;;;;8.77;3.83;;;;;;;;;;4957284;29;20547;-74
2021/07/18 04:06:42;;;;;;;8.17;3.83;;;;;;;;;;4977585;28;20206;-72
2021/07/18 04:09:47;;;;;;;11.53;3.77;;;;;;;;;;4964669;28;20665;-72
2021/07/18 04:12:51;;;;;;;9.47;3.50;;;;;;;;;;4966111;28;20217;-72
2021/07/18 04:15:55;;;;;;;5.97;3.50;;;;;;;;;;4982587;28;20186;-72
2021/07/18 04:18:59;;;;;;;6.97;3.27;;;;;;;;;;4990663;28;20186;-72
2021/07/18 04:22:04;;;;;;;11.03;3.57;;;;;;;;;;4968215;28;20226;-72
2021/07/18 04:25:09;;;;;;;8.30;3.10;;;;;;;;;;4983335;28;20221;-73
2021/07/18 04:28:13;;;;;;;9.30;3.37;;;;;;;;;;5000075;23;20202;-73
2021/07/18 04:31:17;;;;;;;5.73;3.37;;;;;;;;;;5028618;28;20220;-73
2021/07/18 04:34:21;;;;;;;4.43;2.93;;;;;;;;;;5028469;28;20647;-73
2021/07/18 04:37:25;;;;;;;4.97;3.10;;;;;;;;;;5028451;28;20181;-73
2021/07/18 04:40:30;;;;;;;7.90;3.23;;;;;;;;;;5020192;28;20656;-74
2021/07/18 04:43:35;;;;;;;10.53;3.40;;;;;;;;;;5005685;28;20190;-73
2021/07/18 04:46:39;;;;;;;7.37;4.00;;;;;;;;;;5018272;28;20188;-73
2021/07/18 04:49:43;;;;;;;5.60;3.40;;;;;;;;;;5008461;28;20676;-74
2021/07/18 04:52:47;;;;;;;8.40;3.30;;;;;;;;;;5001457;28;20224;-74
2021/07/18 04:55:51;;;;;;;10.33;3.27;;;;;;;;;;5023790;28;20193;-74
2021/07/18 04:58:55;;;;;;;6.27;3.33;;;;;;;;;;5024194;28;20192;-74
2021/07/18 05:01:59;;;;;;;8.87;3.80;;;;;;;;;;5028701;28;20220;-73
2021/07/18 05:05:04;;;;;;;7.17;3.47;;;;;;;;;;5014319;28;20213;-74
2021/07/18 05:08:08;;;;;;;10.57;3.27;;;;;;;;;;5032064;28;20208;-74
2021/07/18 05:11:12;;;;;;;6.23;3.10;;;;;;;;;;5022874;28;20580;-73
2021/07/18 05:14:16;;;;;;;8.53;3.30;;;;;;;;;;5027211;28;20541;-73
2021/07/18 05:17:20;;;;;;;5.30;2.83;;;;;;;;;;5021909;28;20190;-73
2021/07/18 05:20:25;;;;;;;7.50;3.63;;;;;;;;;;5013482;28;20201;-74
2021/07/18 05:23:29;;;;;;;6.83;3.00;;;;;;;;;;5022128;28;20197;-73
2021/07/18 05:26:33;;;;;;;7.27;3.10;;;;;;;;;;5034741;28;20177;-74
2021/07/18 05:29:37;;;;;;;8.77;3.13;;;;;;;;;;5017532;28;20557;-74
2021/07/18 05:32:42;;;;;;;8.33;3.30;;;;;;;;;;5034266;28;20217;-74
2021/07/18 05:35:46;;;;;;;6.67;3.40;;;;;;;;;;5034047;28;20177;-74
2021/07/18 05:38:50;;;;;;;4.90;3.00;;;;;;;;;;5025801;28;20528;-73
2021/07/18 05:41:55;;;;;;;7.10;3.23;;;;;;;;;;5032063;28;20224;-74
2021/07/18 05:44:59;;;;;;;7.30;3.50;;;;;;;;;;5024161;28;20205;-73
2021/07/18 05:48:04;;;;;;;8.60;3.13;;;;;;;;;;5028898;28;20207;-73
2021/07/18 05:51:09;;;;;;;5.50;3.27;;;;;;;;;;5005154;28;20221;-73
2021/07/18 05:54:12;;;;;;;7.50;3.00;;;;;;;;;;5014608;28;20174;-74
2021/07/18 05:57:16;;;;;;;8.13;3.13;;;;;;;;;;5013194;28;20177;-74
2021/07/18 06:00:21;;;;;;;6.37;2.87;;;;;;;;;;5015120;28;20189;-74
2021/07/18 06:03:25;;;;;;;6.73;3.40;;;;;;;;;;5027598;28;20181;-74
2021/07/18 06:06:29;;;;;;;5.60;2.77;;;;;;;;;;5013614;28;20518;-74
2021/07/18 06:09:33;;;;;;;6.93;2.77;;;;;;;;;;5013225;28;20185;-75
2021/07/18 06:12:37;;;;;;;6.43;3.00;;;;;;;;;;5013823;28;20225;-73
2021/07/18 06:15:42;;;;;;;7.23;3.03;;;;;;;;;;5028842;28;20176;-74
2021/07/18 06:18:46;;;;;;;4.37;2.80;;;;;;;;;;5037965;28;20192;-73
2021/07/18 06:21:50;;;;;;;4.13;3.23;;;;;;;;;;5029992;28;20536;-74
2021/07/18 06:24:54;;;;;;;4.73;2.87;;;;;;;;;;5012724;28;20209;-74
2021/07/18 06:27:58;;;;;;;5.17;2.67;;;;;;;;;;5010105;28;20209;-74
2021/07/18 06:31:03;;;;;;;7.67;3.30;;;;;;;;;;5011589;28;20185;-74
2021/07/18 06:34:07;;;;;;;8.93;3.23;;;;;;;;;;5013924;28;20189;-74
2021/07/18 06:37:11;;;;;;;6.33;3.10;;;;;;;;;;5019060;28;20189;-74
2021/07/18 06:40:16;;;;;;;5.70;2.97;;;;;;;;;;5027196;28;20184;-73
2021/07/18 06:43:20;;;;;;;4.63;3.30;;;;;;;;;;5023943;28;20667;-74
2021/07/18 06:46:24;;;;;;;3.97;3.20;;;;;;;;;;5030385;28;20523;-74
2021/07/18 06:49:28;;;;;;;8.30;3.50;;;;;;;;;;5013958;28;20182;-74
2021/07/18 06:52:32;;;;;;;10.17;2.97;;;;;;;;;;5012638;28;20217;-73
2021/07/18 06:55:36;;;;;;;15.13;3.77;;;;;;;;;;5013635;28;20521;-73
2021/07/18 06:58:40;;;;;;;7.43;3.87;;;;;;;;;;5022355;28;20197;-73
2021/07/18 07:01:45;;;;;;;8.40;3.80;;;;;;;;;;5030827;28;20232;-74
2021/07/18 07:04:49;;;;;;;9.17;4.23;;;;;;;;;;5019343;28;20213;-73
2021/07/18 07:07:53;;;;;;;13.10;4.57;;;;;;;;;;5013463;28;20217;-73
2021/07/18 07:10:57;;;;;;;10.53;4.20;;;;;;;;;;5013138;28;20648;-73
2021/07/18 07:14:01;;;;;;;9.43;4.00;;;;;;;;;;5019394;28;20196;-74
2021/07/18 07:17:05;;;;;;;6.80;4.03;;;;;;;;;;5031597;28;20181;-73
2021/07/18 07:20:11;;;;;;;7.90;4.30;;;;;;;;;;5020436;28;20193;-74
2021/07/18 07:23:15;;;;;;;8.43;4.60;;;;;;;;;;5013388;28;20177;-73
2021/07/18 07:26:19;;;;;;;6.77;4.57;;;;;;;;;;5034894;28;20674;-73
2021/07/18 07:29:23;;;;;;;9.53;4.33;;;;;;;;;;5021970;28;20213;-73
2021/07/18 07:32:27;;;;;;;5.93;4.37;;;;;;;;;;5032118;28;20220;-73
2021/07/18 07:35:31;;;;;;;10.37;5.30;;;;;;;;;;5036223;28;20181;-74
2021/07/18 07:38:36;;;;;;;7.13;4.70;;;;;;;;;;5036625;28;20184;-73
2021/07/18 07:41:40;;;;;;;8.00;4.93;;;;;;;;;;5034265;28;20208;-74
2021/07/18 07:44:44;;;;;;;9.93;5.03;;;;;;;;;;5036035;28;20205;-74
2021/07/18 07:47:48;;;;;;;6.83;4.90;;;;;;;;;;5020942;28;20193;-73
2021/07/18 07:50:52;;;;;;;8.87;5.17;;;;;;;;;;5019041;28;20656;-73
2021/07/18 07:53:57;;;;;;;6.80;4.93;;;;;;;;;;5016382;28;20205;-73
2021/07/18 07:57:01;;;;;;;8.50;5.53;;;;;;;;;;5015807;28;20186;-74
2021/07/18 08:00:08;;;;;;;10.20;5.30;;;;;;;;;;5018957;28;20184;-73
2021/07/18 08:03:16;;;;;;;10.03;5.07;;;;;;;;;;5022265;28;20189;-74
2021/07/18 08:06:20;;;;;;;9.97;5.87;;;;;;;;;;5016689;28;20202;-73
2021/07/18 08:09:25;;;;;;;10.53;6.33;;;;;;;;;;5029343;28;20189;-73
2021/07/18 08:12:29;;;;;;;9.07;5.60;;;;;;;;;;5029769;28;20224;-73
2021/07/18 08:15:34;;;;;;;9.27;5.63;;;;;;;;;;5031489;28;20184;-73
2021/07/18 08:18:39;;;;;;;9.23;5.67;;;;;;;;;;5015785;28;20513;-73
2021/07/18 08:21:44;;;;;;;8.70;5.27;;;;;;;;;;5016414;28;20222;-74
2021/07/18 08:24:48;;;;;;;10.20;6.17;;;;;;;;;;5015839;28;20668;-73
2021/07/18 08:27:54;;;;;;;10.23;6.97;;;;;;;;;;5020797;28;20204;-73
2021/07/18 08:30:57;;;;;;;6.33;5.67;;;;;;;;;;5035196;28;20200;-73
2021/07/18 08:34:02;;;;;;;6.53;5.30;;;;;;;;;;5019374;28;20208;-74
2021/07/18 08:37:06;;;;;;;9.27;7.00;;;;;;;;;;5015287;28;20196;-74
2021/07/18 08:40:12;;;;;;;11.27;8.03;;;;;;;;;;5014261;28;20206;-74
2021/07/18 08:43:18;;;;;;;12.70;7.90;;;;;;;;;;5015223;28;20177;-73
2021/07/18 08:46:22;;;;;;;12.30;8.00;;;;;;;;;;5014760;28;20217;-73
2021/07/18 08:49:26;;;;;;;13.77;8.07;;;;;;;;;;5014715;28;20197;-73
2021/07/18 08:52:30;;;;;;;9.47;7.53;;;;;;;;;;5014650;28;20225;-73
2021/07/18 08:55:38;;;;;;;14.07;7.97;;;;;;;;;;5014875;28;20537;-74
2021/07/18 08:58:43;;;;;;;10.07;7.87;;;;;;;;;;5014339;28;20182;-74
2021/07/18 09:01:48;;;;;;;8.87;7.87;;;;;;;;;;5014312;28;20327;-74
2021/07/18 09:05:05;;;;;;;12.40;8.20;;;;;;;;;;5015108;28;20212;-74
2021/07/18 09:08:18;;;;;;;10.80;8.70;;;;;;;;;;5014542;28;20185;-74
2021/07/18 09:11:24;;;;;;;12.45;8.43;;;;;;;;;;5013862;28;20232;-74
2021/07/18 09:14:45;;;;;;;11.13;7.88;;;;;;;;;;5024943;28;20208;-74
2021/07/18 09:17:49;;;;;;;10.02;7.95;;;;;;;;;;5014775;28;20182;-74
2021/07/18 09:20:58;;;;;;;11.68;9.50;;;;;;;;;;5014845;28;20524;-74
2021/07/18 09:24:17;;;;;;;14.02;9.65;;;;;;;;;;5014868;28;20177;-74
2021/07/18 09:27:33;;;;;;;12.95;9.90;;;;;;;;;;5014240;28;20523;-74
2021/07/18 09:30:37;;;;;;;11.88;10.38;;;;;;;;;;5014198;28;20191;-74
2021/07/18 09:33:40;;;;;;;15.80;11.85;;;;;;;;;;5014766;28;20216;-73
2021/07/18 09:36:45;;;;;;;16.40;12.18;;;;;;;;;;5013378;28;20195;-73
2021/07/18 09:40:02;;;;;;;14.23;10.87;;;;;;;;;;5013376;28;20199;-74
2021/07/18 09:43:06;;;;;;;13.00;10.75;;;;;;;;;;5014030;28;20246;-73
2021/07/18 09:46:11;;;;;;;15.20;11.60;;;;;;;;;;5014356;28;20214;-73
2021/07/18 09:49:32;;;;;;;14.48;11.68;;;;;;;;;;5014202;28;20186;-74
2021/07/18 09:52:37;;;;;;;12.32;10.98;;;;;;;;;;5013742;28;20586;-74
2021/07/18 09:56:01;;;;;;;13.25;10.65;;;;;;;;;;5024425;28;20190;-74
2021/07/18 09:59:05;;;;;;;14.10;10.70;;;;;;;;;;5013235;28;20543;-74
2021/07/18 10:02:09;;;;;;;14.48;12.35;;;;;;;;;;5014178;28;20229;-74
2021/07/18 10:05:29;;;;;;;12.95;10.90;;;;;;;;;;5013094;28;20196;-74
2021/07/18 10:08:35;;;;;;;15.50;11.60;;;;;;;;;;5013689;28;20189;-74
2021/07/18 10:11:39;;;;;;;12.75;11.05;;;;;;;;;;5013736;28;20232;-74
2021/07/18 10:14:43;;;;;;;11.77;10.52;;;;;;;;;;5013109;28;20190;-74
2021/07/18 10:17:50;;;;;;;13.68;11.35;;;;;;;;;;5013520;28;20203;-73
2021/07/18 10:20:54;;;;;;;13.77;11.73;;;;;;;;;;5012626;28;20208;-74
2021/07/18 10:23:58;;;;;;;16.05;12.57;;;;;;;;;;5013806;28;20193;-73
2021/07/18 10:27:04;;;;;;;15.25;12.50;;;;;;;;;;5014083;28;20209;-74
2021/07/18 10:30:11;;;;;;;12.63;11.27;;;;;;;;;;5053416;23;20236;-86
2021/07/18 10:33:18;;;;;;;13.05;11.75;;;;;;;;;;5027703;28;20219;-83
2021/07/18 10:36:25;;;;;;;14.95;11.45;;;;;;;;;;5033830;28;20246;-83
2021/07/18 10:39:30;;;;;;;13.85;12.10;;;;;;;;;;5022365;28;20186;-83
2021/07/18 10:42:34;;;;;;;12.73;11.43;;;;;;;;;;5004252;28;20562;-83
2021/07/18 10:45:43;;;;;;;14.40;10.75;;;;;;;;;;5014368;28;20699;-83
2021/07/18 10:48:52;;;;;;;13.95;10.38;;;;;;;;;;5002975;28;20193;-83
2021/07/18 10:51:56;;;;;;;15.77;10.35;;;;;;;;;;5014320;28;20182;-83
2021/07/18 10:55:19;;;;;;;13.02;10.38;;;;;;;;;;4991931;28;20692;-83
2021/07/18 10:58:39;;;;;;;13.68;10.10;;;;;;;;;;5002723;28;20212;-83
2021/07/18 11:01:43;;;;;;;12.27;10.50;;;;;;;;;;4991572;28;20585;-83
2021/07/18 11:04:52;;;;;;;11.95;10.18;;;;;;;;;;4990675;28;20687;-83
2021/07/18 11:07:56;;;;;;;11.18;9.57;;;;;;;;;;5003937;28;20533;-84
2021/07/18 11:11:00;;;;;;;13.25;8.77;;;;;;;;;;5014533;28;20228;-84
2021/07/18 11:14:36;;;;;;;11.48;8.60;;;;;;;;;;5001799;28;20187;-84
2021/07/18 11:18:00;;;;;;;12.35;8.95;;;;;;;;;;5005931;28;20627;-84
2021/07/18 11:21:06;;;;;;;9.60;8.48;;;;;;;;;;5005459;28;20228;-84
2021/07/18 11:24:10;;;;;;;10.50;8.45;;;;;;;;;;5001709;28;20188;-84
2021/07/18 11:27:27;;;;;;;9.88;8.63;;;;;;;;;;5016719;28;20202;-84
2021/07/18 11:30:40;;;;;;;10.15;8.13;;;;;;;;;;4994164;28;20240;-84
2021/07/18 11:33:44;;;;;;;9.40;7.75;;;;;;;;;;4983030;28;20199;-84
2021/07/18 11:36:50;;;;;;;8.07;6.97;;;;;;;;;;4995321;28;20664;-85
2021/07/18 11:40:04;;;;;;;9.50;7.38;;;;;;;;;;4993626;28;20232;-83
2021/07/18 11:43:08;;;;;;;9.60;7.38;;;;;;;;;;5015451;28;20534;-84
2021/07/18 11:46:13;;;;;;;9.80;7.53;;;;;;;;;;5003565;28;20215;-83
2021/07/18 11:49:17;;;;;;;8.05;6.65;;;;;;;;;;4992697;28;20193;-84
2021/07/18 11:52:23;;;;;;;7.60;6.57;;;;;;;;;;5014534;28;20187;-83
2021/07/18 11:55:29;;;;;;;7.65;6.25;;;;;;;;;;4997296;28;20187;-83
2021/07/18 11:58:33;;;;;;;9.75;6.03;;;;;;;;;;4985969;28;20180;-83
2021/07/18 12:01:39;;;;;;;9.15;6.25;;;;;;;;;;4985621;28;20582;-83
2021/07/18 12:04:44;;;;;;;8.75;5.40;;;;;;;;;;4992656;28;20186;-83
2021/07/18 12:08:02;;;;;;;6.75;6.07;;;;;;;;;;5006995;28;20211;-83
2021/07/18 12:11:08;;;;;;;7.70;5.97;;;;;;;;;;5016284;28;20216;-83
2021/07/18 12:14:12;;;;;;;12.85;7.85;;;;;;;;;;5015999;28;20181;-83
2021/07/18 12:17:16;;;;;;;8.90;6.20;;;;;;;;;;5004096;28;20541;-83
2021/07/18 12:20:22;;;;;;;11.00;6.50;;;;;;;;;;5015734;28;20220;-83
2021/07/18 12:23:26;;;;;;;9.45;6.40;;;;;;;;;;4993144;28;20181;-83
2021/07/18 12:26:30;;;;;;;6.22;5.32;;;;;;;;;;5004349;28;20231;-82
2021/07/18 12:29:44;;;;;;;7.70;5.65;;;;;;;;;;5004335;28;20188;-83
2021/07/18 12:32:48;;;;;;;9.80;6.55;;;;;;;;;;4993913;28;20521;-83
2021/07/18 12:36:03;;;;;;;8.48;5.53;;;;;;;;;;4993484;28;20200;-83
2021/07/18 12:39:17;;;;;;;8.15;5.57;;;;;;;;;;5004212;28;20197;-82
2021/07/18 12:42:29;;;;;;;8.07;5.30;;;;;;;;;;5004689;28;20538;-82
2021/07/18 12:45:35;;;;;;;8.20;5.60;;;;;;;;;;5004007;28;20522;-83
2021/07/18 12:48:39;;;;;;;7.75;5.82;;;;;;;;;;4993052;28;20188;-83
2021/07/18 12:51:44;;;;;;;6.10;5.43;;;;;;;;;;5016266;28;20221;-83
2021/07/18 12:54:48;;;;;;;9.85;5.22;;;;;;;;;;4994154;28;20180;-83
2021/07/18 12:57:52;;;;;;;8.57;5.55;;;;;;;;;;5004188;28;20198;-83
2021/07/18 13:01:13;;;;;;;9.00;5.35;;;;;;;;;;5005369;28;20221;-83
2021/07/18 13:04:31;;;;;;;9.20;5.53;;;;;;;;;;5015555;28;20206;-83
2021/07/18 13:07:35;;;;;;;9.38;5.32;;;;;;;;;;4995368;28;20210;-83
2021/07/18 13:10:42;;;;;;;8.63;5.70;;;;;;;;;;5023112;28;20225;-83
2021/07/18 13:13:46;;;;;;;8.65;5.50;;;;;;;;;;5004022;28;20182;-83
2021/07/18 13:16:51;;;;;;;8.30;5.60;;;;;;;;;;4984049;28;20189;-82
2021/07/18 13:20:06;;;;;;;9.32;5.25;;;;;;;;;;4995555;28;20222;-82
2021/07/18 13:23:10;;;;;;;6.00;5.10;;;;;;;;;;4984463;28;20191;-83
2021/07/18 13:26:37;;;;;;;6.85;5.32;;;;;;;;;;4984336;28;20210;-83
2021/07/18 13:29:45;;;;;;;5.45;4.60;;;;;;;;;;4995356;28;20195;-83
2021/07/18 13:32:52;;;;;;;6.82;5.22;;;;;;;;;;4983765;28;20183;-83
2021/07/18 13:35:58;;;;;;;5.88;4.80;;;;;;;;;;4995051;28;20182;-83
2021/07/18 13:39:16;;;;;;;7.88;5.38;;;;;;;;;;4980020;28;20189;-83
2021/07/18 13:42:34;;;;;;;5.20;4.70;;;;;;;;;;5015239;28;20185;-83
2021/07/18 13:45:44;;;;;;;6.07;4.72;;;;;;;;;;5003939;28;20186;-83
2021/07/18 13:48:48;;;;;;;5.90;4.78;;;;;;;;;;5003847;28;20196;-83
2021/07/18 13:51:54;;;;;;;7.95;4.90;;;;;;;;;;4992112;28;20553;-83
2021/07/18 13:54:59;;;;;;;5.03;4.53;;;;;;;;;;4983940;28;20190;-83
2021/07/18 13:58:03;;;;;;;7.93;5.15;;;;;;;;;;4995454;28;20198;-83
2021/07/18 14:01:07;;;;;;;7.03;4.60;;;;;;;;;;4972995;28;20214;-83
2021/07/18 14:04:12;;;;;;;5.97;4.40;;;;;;;;;;5006269;28;20182;-83
2021/07/18 14:07:16;;;;;;;5.18;4.20;;;;;;;;;;4983585;28;20210;-83
2021/07/18 14:10:20;;;;;;;5.53;4.45;;;;;;;;;;4983863;28;20222;-83
2021/07/18 14:13:24;;;;;;;6.13;4.10;;;;;;;;;;4983266;28;20661;-83
2021/07/18 14:16:29;;;;;;;6.65;4.22;;;;;;;;;;4994373;28;20202;-83
2021/07/18 14:19:32;;;;;;;6.20;4.00;;;;;;;;;;4979290;28;20205;-83
2021/07/18 14:22:37;;;;;;;6.30;4.15;;;;;;;;;;5014552;28;20206;-83
2021/07/18 14:25:41;;;;;;;6.45;4.38;;;;;;;;;;5016251;28;20201;-83
2021/07/18 14:28:45;;;;;;;8.90;4.28;;;;;;;;;;5004730;28;20190;-82
2021/07/18 14:31:49;;;;;;;5.60;3.70;;;;;;;;;;5003501;28;20229;-81
2021/07/18 14:34:53;;;;;;;5.75;4.15;;;;;;;;;;5003022;28;20205;-83
2021/07/18 14:37:57;;;;;;;5.07;3.60;;;;;;;;;;5003742;28;20174;-82
2021/07/18 14:41:02;;;;;;;6.30;4.00;;;;;;;;;;4984568;28;20230;-83
2021/07/18 14:44:06;;;;;;;5.45;3.60;;;;;;;;;;4975826;28;20206;-83
2021/07/18 14:47:10;;;;;;;4.68;3.65;;;;;;;;;;4982005;28;20210;-83
2021/07/18 14:50:15;;;;;;;4.63;3.85;;;;;;;;;;4982364;28;20221;-83
2021/07/18 14:53:19;;;;;;;4.88;3.60;;;;;;;;;;4991025;28;20202;-83
2021/07/18 14:56:24;;;;;;;5.72;3.42;;;;;;;;;;4987783;28;20521;-83
2021/07/18 14:59:28;;;;;;;4.50;3.50;;;;;;;;;;4988273;28;20533;-83
2021/07/18 15:02:32;;;;;;;7.40;3.40;;;;;;;;;;4988408;28;20182;-83
2021/07/18 15:05:36;;;;;;;7.32;3.50;;;;;;;;;;4976973;28;20183;-84
2021/07/18 15:08:41;;;;;;;6.32;3.50;;;;;;;;;;4998933;28;20199;-84
2021/07/18 15:11:46;;;;;;;4.40;3.40;;;;;;;;;;4990839;28;20226;-84
2021/07/18 15:14:50;;;;;;;7.15;3.40;;;;;;;;;;5017877;28;20190;-84
2021/07/18 15:17:54;;;;;;;4.90;3.35;;;;;;;;;;4996452;28;20527;-84
2021/07/18 15:20:59;;;;;;;4.32;3.53;;;;;;;;;;5002121;28;20710;-85
2021/07/18 15:24:04;;;;;;;5.03;3.40;;;;;;;;;;5007943;28;20178;-85
2021/07/18 15:27:08;;;;;;;4.63;3.78;;;;;;;;;;5007340;28;20559;-85
2021/07/18 15:30:13;;;;;;;9.60;3.95;;;;;;;;;;5017633;28;20221;-85
2021/07/18 15:33:17;;;;;;;4.45;3.47;;;;;;;;;;4995717;28;20182;-85
2021/07/18 15:36:21;;;;;;;7.07;3.70;;;;;;;;;;5006012;28;20197;-84
2021/07/18 15:39:25;;;;;;;6.15;3.38;;;;;;;;;;4996167;28;20186;-84
2021/07/18 15:42:29;;;;;;;6.70;3.63;;;;;;;;;;4996896;28;20181;-85
2021/07/18 15:45:35;;;;;;;6.80;3.20;;;;;;;;;;5018120;28;20633;-85
2021/07/18 15:48:39;;;;;;;6.68;4.05;;;;;;;;;;4997357;28;20202;-85
2021/07/18 15:51:43;;;;;;;9.63;4.03;;;;;;;;;;4997712;28;20228;-84
2021/07/18 15:54:48;;;;;;;9.15;4.20;;;;;;;;;;5018012;28;20200;-85
2021/07/18 15:57:52;;;;;;;8.70;4.45;;;;;;;;;;4994619;28;20182;-84
2021/07/18 16:00:57;;;;;;;6.72;3.60;;;;;;;;;;4994977;28;20221;-84
2021/07/18 16:04:02;;;;;;;10.15;4.32;;;;;;;;;;5006199;28;20190;-84
2021/07/18 16:07:06;;;;;;;11.45;4.32;;;;;;;;;;4995190;28;20220;-85
2021/07/18 16:10:12;;;;;;;10.15;3.92;;;;;;;;;;5016439;28;20218;-84
2021/07/18 16:13:16;;;;;;;10.40;4.03;;;;;;;;;;5016686;28;20185;-84
2021/07/18 16:16:20;;;;;;;9.07;3.95;;;;;;;;;;5015732;28;20200;-84
2021/07/18 16:19:24;;;;;;;10.70;4.85;;;;;;;;;;5004551;28;20193;-84
2021/07/18 16:22:28;;;;;;;8.23;4.40;;;;;;;;;;4986316;28;20205;-84
2021/07/18 16:25:32;;;;;;;7.57;4.50;;;;;;;;;;4992012;28;20195;-84
2021/07/18 16:28:36;;;;;;;10.65;4.68;;;;;;;;;;5002570;28;20219;-85
2021/07/18 16:31:41;;;;;;;11.20;4.80;;;;;;;;;;5036355;23;20229;-85
2021/07/18 16:34:45;;;;;;;12.10;4.43;;;;;;;;;;5015788;28;20180;-85
2021/07/18 16:37:49;;;;;;;7.57;4.75;;;;;;;;;;5018442;28;20674;-85
2021/07/18 16:40:53;;;;;;;9.90;5.05;;;;;;;;;;5003813;28;20231;-85
2021/07/18 16:43:58;;;;;;;9.23;4.70;;;;;;;;;;5003650;28;20194;-85
2021/07/18 16:47:03;;;;;;;7.13;4.70;;;;;;;;;;4992160;28;20543;-85
2021/07/18 16:50:08;;;;;;;10.63;5.43;;;;;;;;;;4992243;28;20187;-85
2021/07/18 16:53:13;;;;;;;7.18;4.63;;;;;;;;;;5014852;28;20203;-85
2021/07/18 16:56:17;;;;;;;9.23;5.57;;;;;;;;;;5003397;28;20189;-85
2021/07/18 16:59:21;;;;;;;11.10;5.50;;;;;;;;;;5015020;28;20180;-85
2021/07/18 17:02:26;;;;;;;6.90;4.97;;;;;;;;;;5013699;28;20702;-85
2021/07/18 17:05:30;;;;;;;10.00;5.90;;;;;;;;;;5021312;28;20215;-84
2021/07/18 17:08:35;;;;;;;8.40;6.03;;;;;;;;;;5013640;28;20221;-86
2021/07/18 17:11:40;;;;;;;9.50;6.67;;;;;;;;;;5013894;28;20221;-87
2021/07/18 17:14:45;;;;;;;8.87;6.40;;;;;;;;;;5013973;28;20185;-86
2021/07/18 17:17:49;;;;;;;11.27;6.87;;;;;;;;;;4991842;28;20644;-86
2021/07/18 17:20:53;;;;;;;8.40;6.53;;;;;;;;;;4991660;28;20224;-87
2021/07/18 17:23:57;;;;;;;12.07;7.23;;;;;;;;;;5013812;28;20182;-86
2021/07/18 17:27:03;;;;;;;11.20;7.13;;;;;;;;;;4991655;28;20178;-86
2021/07/18 17:30:08;;;;;;;14.63;7.63;;;;;;;;;;4991571;28;20174;-86
2021/07/18 17:33:13;;;;;;;11.60;8.17;;;;;;;;;;4991512;28;20178;-86
2021/07/18 17:36:18;;;;;;;11.17;7.90;;;;;;;;;;4991136;28;20181;-86
2021/07/18 17:39:22;;;;;;;12.30;7.63;;;;;;;;;;5003551;28;20178;-86
2021/07/18 17:42:26;;;;;;;11.17;7.50;;;;;;;;;;5002917;28;20262;-85
2021/07/18 17:45:30;;;;;;;10.23;7.40;;;;;;;;;;5002605;28;20215;-85
2021/07/18 17:48:35;;;;;;;10.50;7.93;;;;;;;;;;5025022;28;20553;-86
2021/07/18 17:51:39;;;;;;;12.73;8.47;;;;;;;;;;5014154;28;20696;-86
2021/07/18 17:54:43;;;;;;;12.80;8.30;;;;;;;;;;5002718;28;20188;-86
2021/07/18 17:57:47;;;;;;;13.03;9.20;;;;;;;;;;5029055;28;20189;-85
2021/07/18 18:00:51;;;;;;;13.30;9.50;;;;;;;;;;5011549;28;20227;-86
2021/07/18 18:03:55;;;;;;;14.50;11.00;;;;;;;;;;5003297;28;20643;-85
2021/07/18 18:06:59;;;;;;;14.70;11.60;;;;;;;;;;5002472;28;20195;-86
2021/07/18 18:10:10;;;;;;;14.00;11.50;;;;;;;;;;4990044;28;20191;-86
2021/07/18 18:13:14;;;;;;;18.80;12.70;;;;;;;;;;5025214;28;20544;-86
2021/07/18 18:16:18;;;;;;;19.63;12.57;;;;;;;;;;5019243;28;20201;-85
2021/07/18 18:19:24;;;;;;;20.70;12.27;;;;;;;;;;5002788;28;20660;-86
2021/07/18 18:22:28;;;;;;;18.73;13.17;;;;;;;;;;5002912;28;20290;-86